KIMT/IMT METAR and TAF weather

Enter ICAO airport designator
Station Type Date Time Source
KIMT METAR 2021/04/13 07:19 UTC NOAA

KIMT 130719Z AUTO VRB04KT 10SM SCT027 OVC038 06/01 A2980 RMK AO2 T00560011


Station Type Date Time Source
KIMT Decoded METAR 2021/04/13 07:19 UTC NOAA

IRON MOUNTAIN FORD AIRPORT, MI, United States (KIMT) 45-49N 88-07W 349M
Apr 13, 2021 - 03:19 AM EDT / 2021.04.13 0719 UTC
Wind: Variable at 5 MPH (4 KT):0
Visibility: 10 mile(s):0
Sky conditions: overcast
Temperature: 42.1 F (5.6 C)
Dew Point: 34.0 F (1.1 C)
Relative Humidity: 72%
Pressure (altimeter): 29.8 in. Hg (1009 hPa)
ob: KIMT 130719Z AUTO VRB04KT 10SM SCT027 OVC038 06/01 A2980 RMK AO2 T00560011
cycle: 7

Station Type Date Time Source
KIMT TAF UTC NOAA

Error!

Example: see airport list